Time;durP1;ratioP1;P1;durP2;ratioP2;P2;SDS_P1;SDS_P2;PMS_P1;PMS_P2;Temp;Humidity;BMP_temperature;BMP_pressure;BME280_temperature;BME280_humidity;BME280_pressure;Samples;Min_cycle;Max_cycle;Signal;HPM_P1;HPM_P2
2022/10/02 00:01:31;;;;;;;10.90;5.53;;;;;;;12.34;100.00;100477.91;5047986;28;20658;-75
2022/10/02 00:04:07;;;;;;;9.98;5.57;;;;;;;12.38;100.00;100476.81;5056561;28;20225;-76
2022/10/02 00:06:40;;;;;;;16.60;7.13;;;;;;;12.47;100.00;100476.31;5045327;28;20557;-75
2022/10/02 00:09:10;;;;;;;14.23;6.43;;;;;;;12.59;100.00;100488.31;5050335;28;20266;-76
2022/10/02 00:11:43;;;;;;;13.77;5.82;;;;;;;12.75;100.00;100494.66;5050002;28;20218;-77
2022/10/02 00:14:13;;;;;;;8.20;4.88;;;;;;;12.84;100.00;100485.19;5050949;28;20205;-77
2022/10/02 00:16:42;;;;;;;12.43;4.60;;;;;;;12.89;100.00;100491.25;5046341;28;20229;-76
2022/10/02 00:19:11;;;;;;;12.52;4.68;;;;;;;12.89;100.00;100494.81;5055135;28;20197;-76
2022/10/02 00:22:05;;;;;;;14.68;4.47;;;;;;;12.94;100.00;100503.53;5037985;28;20190;-76
2022/10/02 00:24:38;;;;;;;13.52;4.57;;;;;;;12.98;100.00;100506.97;5054264;28;20213;-76
2022/10/02 00:27:27;;;;;;;9.05;3.92;;;;;;;13.04;100.00;100514.72;5051072;28;20197;-76
2022/10/02 00:29:59;;;;;;;29.52;5.07;;;;;;;13.04;100.00;100517.44;5048462;28;20199;-76
2022/10/02 00:32:31;;;;;;;9.05;4.07;;;;;;;13.08;100.00;100527.13;5058887;28;20216;-75
2022/10/02 00:35:36;;;;;;;11.80;4.30;;;;;;;13.11;100.00;100523.38;5057088;28;20244;-75
2022/10/02 00:38:13;;;;;;;12.32;4.40;;;;;;;13.13;100.00;100540.41;5053111;28;20662;-76
2022/10/02 00:41:02;;;;;;;9.05;3.72;;;;;;;13.17;100.00;100539.28;5044658;28;20189;-75
2022/10/02 00:43:36;;;;;;;10.77;4.05;;;;;;;13.21;100.00;100550.81;5053129;28;20189;-77
2022/10/02 00:46:21;;;;;;;11.30;4.93;;;;;;;13.18;100.00;100546.41;5058023;28;20741;-76
2022/10/02 00:48:56;;;;;;;10.18;3.65;;;;;;;13.20;100.00;100554.47;5073550;28;20177;-74
2022/10/02 00:51:45;;;;;;;12.18;4.75;;;;;;;13.21;100.00;100553.53;5056628;28;20300;-74
2022/10/02 00:54:29;;;;;;;10.80;4.20;;;;;;;13.25;100.00;100555.97;5071256;28;20232;-76
2022/10/02 00:57:08;;;;;;;8.85;3.85;;;;;;;13.28;100.00;100536.03;5073303;28;20276;-74
2022/10/02 00:59:49;;;;;;;12.50;5.53;;;;;;;13.26;100.00;100543.31;5079819;28;20243;-77
2022/10/02 01:02:55;;;;;;;14.70;4.85;;;;;;;13.18;100.00;100540.16;5071156;28;20240;-76
2022/10/02 01:05:21;;;;;;;10.30;4.80;;;;;;;13.16;100.00;100545.66;5068749;28;20248;-75
2022/10/02 01:07:52;;;;;;;13.65;4.60;;;;;;;13.15;100.00;100543.91;5062819;28;20227;-75
2022/10/02 01:10:21;;;;;;;10.60;5.15;;;;;;;13.12;100.00;100525.13;5061081;28;20197;-76
2022/10/02 01:12:48;;;;;;;8.13;4.10;;;;;;;13.16;100.00;100526.72;5047579;28;20628;-76
2022/10/02 01:15:18;;;;;;;8.70;4.65;;;;;;;13.12;100.00;100535.97;5051848;28;20229;-75
2022/10/02 01:17:46;;;;;;;15.32;5.47;;;;;;;13.10;100.00;100525.22;5051405;28;20197;-76
2022/10/02 01:20:17;;;;;;;11.27;4.85;;;;;;;13.10;100.00;100530.63;5055029;28;20209;-75
2022/10/02 01:22:48;;;;;;;12.35;5.32;;;;;;;13.10;100.00;100527.06;5050071;28;20197;-78
2022/10/02 01:25:16;;;;;;;13.27;4.28;;;;;;;13.10;100.00;100527.91;5053470;28;20232;-74
2022/10/02 01:27:43;;;;;;;14.38;5.07;;;;;;;13.11;100.00;100535.09;5047067;28;20681;-77
2022/10/02 01:30:13;;;;;;;11.60;4.75;;;;;;;13.11;100.00;100537.78;5054739;28;20279;-77
2022/10/02 01:32:42;;;;;;;10.45;4.28;;;;;;;13.15;100.00;100552.88;5047621;28;20229;-76
2022/10/02 01:35:09;;;;;;;10.57;4.63;;;;;;;13.18;100.00;100545.56;5051762;28;20229;-77
2022/10/02 01:37:41;;;;;;;10.00;4.15;;;;;;;13.15;100.00;100550.16;5047613;28;20201;-75
2022/10/02 01:40:11;;;;;;;10.98;4.45;;;;;;;13.21;100.00;100551.69;5051198;28;20562;-76
2022/10/02 01:42:40;;;;;;;10.15;4.28;;;;;;;13.21;100.00;100561.63;5050346;28;20197;-76
2022/10/02 01:45:08;;;;;;;14.68;5.47;;;;;;;13.24;100.00;100547.94;5052189;28;20224;-75
2022/10/02 01:47:43;;;;;;;8.73;4.50;;;;;;;13.22;100.00;100563.38;5050411;28;20577;-75
2022/10/02 01:50:17;;;;;;;8.48;3.88;;;;;;;13.19;100.00;100547.31;5052426;28;20192;-75
2022/10/02 01:52:53;;;;;;;14.05;5.65;;;;;;;13.17;100.00;100549.22;5054400;28;20217;-76
2022/10/02 01:55:34;;;;;;;12.50;5.20;;;;;;;13.14;100.00;100553.84;5049846;28;20233;-76
2022/10/02 01:58:18;;;;;;;13.52;6.45;;;;;;;13.10;100.00;100552.25;5045937;28;20691;-77
2022/10/02 02:00:57;;;;;;;19.92;7.22;;;;;;;13.09;100.00;100546.91;5038188;28;20213;-76
2022/10/02 02:03:36;;;;;;;10.00;5.40;;;;;;;13.17;100.00;100555.50;5053985;28;20193;-74
2022/10/02 02:06:09;;;;;;;16.90;4.80;;;;;;;13.15;100.00;100566.41;5050475;28;20213;-77
2022/10/02 02:08:42;;;;;;;12.25;4.50;;;;;;;13.13;100.00;100560.19;5048796;28;20198;-75
2022/10/02 02:11:12;;;;;;;8.70;4.85;;;;;;;13.11;100.00;100562.13;5045824;28;20209;-75
2022/10/02 02:13:46;;;;;;;9.63;4.35;;;;;;;13.14;100.00;100561.09;5051986;28;20204;-77
2022/10/02 02:16:21;;;;;;;8.02;4.50;;;;;;;13.13;100.00;100557.47;5053344;28;20221;-76
2022/10/02 02:18:52;;;;;;;9.00;4.75;;;;;;;13.12;100.00;100563.88;5053654;28;20197;-77
2022/10/02 02:21:23;;;;;;;12.68;5.43;;;;;;;13.08;100.00;100556.88;5045707;28;20205;-75
2022/10/02 02:23:51;;;;;;;12.40;4.30;;;;;;;13.14;100.00;100564.66;5050992;28;20212;-75
2022/10/02 02:26:20;;;;;;;11.88;4.28;;;;;;;13.13;100.00;100556.63;5048970;28;20563;-76
2022/10/02 02:28:53;;;;;;;12.35;3.95;;;;;;;13.12;100.00;100563.00;5049319;28;20206;-76
2022/10/02 02:31:24;;;;;;;12.50;4.40;;;;;;;13.13;100.00;100557.47;5044485;28;20204;-76
2022/10/02 02:33:56;;;;;;;8.60;4.07;;;;;;;13.16;100.00;100559.19;5052446;28;20737;-76
2022/10/02 02:36:26;;;;;;;10.50;4.97;;;;;;;13.18;100.00;100549.13;5053065;28;20607;-75
2022/10/02 02:39:00;;;;;;;10.40;4.20;;;;;;;13.13;100.00;100554.78;5052468;28;20574;-77
2022/10/02 02:41:30;;;;;;;8.38;3.88;;;;;;;13.14;100.00;100551.13;5052782;28;20576;-75
2022/10/02 02:44:02;;;;;;;9.93;3.45;;;;;;;13.16;100.00;100561.88;5058783;28;20212;-76
2022/10/02 02:46:34;;;;;;;9.23;3.75;;;;;;;13.13;100.00;100554.78;5058217;28;20221;-76
2022/10/02 02:49:08;;;;;;;14.65;3.88;;;;;;;13.19;100.00;100569.81;5061396;28;20217;-76
2022/10/02 02:51:37;;;;;;;11.18;4.63;;;;;;;13.16;100.00;100570.00;5068055;28;20196;-76
2022/10/02 02:54:07;;;;;;;7.57;3.40;;;;;;;13.14;100.00;100574.59;5070856;28;20216;-75
2022/10/02 02:56:34;;;;;;;7.95;3.60;;;;;;;13.11;100.00;100570.25;5057986;28;20221;-76
2022/10/02 02:59:08;;;;;;;7.65;4.10;;;;;;;13.13;100.00;100571.00;5060346;28;20197;-76
2022/10/02 03:01:35;;;;;;;8.25;3.25;;;;;;;13.07;100.00;100571.34;5065609;28;20207;-75
2022/10/02 03:04:02;;;;;;;9.25;3.33;;;;;;;13.04;100.00;100567.94;5068748;28;20205;-76
2022/10/02 03:06:32;;;;;;;9.93;4.20;;;;;;;13.10;100.00;100571.19;5068936;28;20221;-76
2022/10/02 03:09:01;;;;;;;16.15;3.70;;;;;;;13.06;100.00;100575.00;5066631;28;20197;-74
2022/10/02 03:11:38;;;;;;;7.85;4.28;;;;;;;13.06;100.00;100575.00;5062325;28;20194;-76
2022/10/02 03:14:17;;;;;;;12.10;3.80;;;;;;;13.08;100.00;100572.22;5068220;28;20216;-75
2022/10/02 03:16:55;;;;;;;12.63;4.13;;;;;;;13.06;100.00;100566.03;5067888;28;20235;-76
2022/10/02 03:19:40;;;;;;;10.73;3.25;;;;;;;13.11;100.00;100569.34;5069413;28;20211;-75
2022/10/02 03:22:12;;;;;;;11.23;3.05;;;;;;;13.10;100.00;100560.38;5066754;28;20181;-75
2022/10/02 03:24:47;;;;;;;15.48;4.30;;;;;;;13.15;100.00;100555.56;5065416;28;20261;-78
2022/10/02 03:27:20;;;;;;;12.18;3.65;;;;;;;13.17;100.00;100562.75;5056175;28;20200;-75
2022/10/02 03:29:55;;;;;;;10.30;3.58;;;;;;;13.19;100.00;100561.72;5063991;28;20232;-75
2022/10/02 03:32:24;;;;;;;6.95;3.70;;;;;;;13.17;100.00;100566.31;5069036;28;20204;-77
2022/10/02 03:34:50;;;;;;;7.20;3.67;;;;;;;13.20;100.00;100565.28;5047353;28;20201;-75
2022/10/02 03:37:17;;;;;;;9.30;3.60;;;;;;;13.20;100.00;100559.88;5062090;28;20619;-75
2022/10/02 03:39:44;;;;;;;11.40;3.80;;;;;;;13.18;100.00;100556.38;5062483;28;20193;-76
2022/10/02 03:42:13;;;;;;;17.15;3.95;;;;;;;13.17;100.00;100554.63;5066215;28;20201;-75
2022/10/02 03:44:39;;;;;;;9.85;3.25;;;;;;;13.18;100.00;100557.25;5056244;28;20189;-75
2022/10/02 03:47:07;;;;;;;9.20;2.92;;;;;;;13.22;100.00;100560.66;5059390;28;20261;-75
2022/10/02 03:49:33;;;;;;;9.55;3.63;;;;;;;13.22;100.00;100569.66;5061128;28;20204;-77
2022/10/02 03:52:00;;;;;;;11.88;3.42;;;;;;;13.26;100.00;100567.66;5078597;28;20237;-75
2022/10/02 03:54:34;;;;;;;7.47;3.35;;;;;;;13.21;100.00;100572.44;5074140;28;20268;-75
2022/10/02 03:57:04;;;;;;;12.25;3.88;;;;;;;13.24;100.00;100585.81;5072450;28;20198;-78
2022/10/02 03:59:42;;;;;;;8.05;3.63;;;;;;;13.26;100.00;100590.16;5081785;28;20201;-75
2022/10/02 04:02:21;;;;;;;10.48;4.40;;;;;;;13.30;100.00;100590.94;5066059;28;20266;-75
2022/10/02 04:04:53;;;;;;;13.38;4.63;;;;;;;13.32;100.00;100591.72;5065652;28;20193;-75
2022/10/02 04:07:24;;;;;;;15.43;4.10;;;;;;;13.32;100.00;100594.44;5061003;28;20226;-77
2022/10/02 04:10:03;;;;;;;13.80;4.78;;;;;;;13.34;100.00;100596.09;5064819;28;20185;-75
2022/10/02 04:12:36;;;;;;;11.60;4.07;;;;;;;13.43;100.00;100594.72;5054258;28;20198;-74
2022/10/02 04:15:10;;;;;;;12.75;4.78;;;;;;;13.46;100.00;100582.84;5067768;28;20297;-75
2022/10/02 04:17:44;;;;;;;13.95;4.65;;;;;;;13.49;100.00;100586.25;5060894;28;20280;-76
2022/10/02 04:20:16;;;;;;;13.45;4.38;;;;;;;13.47;100.00;100588.16;5071893;28;20223;-76
2022/10/02 04:22:49;;;;;;;12.00;5.25;;;;;;;13.45;100.00;100594.63;5071552;28;20208;-74
2022/10/02 04:25:18;;;;;;;15.00;4.55;;;;;;;13.47;100.00;100587.28;5084594;28;20227;-75
2022/10/02 04:27:50;;;;;;;9.95;4.25;;;;;;;13.46;100.00;100589.13;5089113;28;20209;-77
2022/10/02 04:30:19;;;;;;;10.82;4.65;;;;;;;13.49;100.00;100578.13;5074943;28;20203;-76
2022/10/02 04:32:48;;;;;;;11.70;5.05;;;;;;;13.50;100.00;100579.00;5072856;28;20224;-76
2022/10/02 04:35:16;;;;;;;12.48;5.15;;;;;;;13.51;100.00;100570.81;5075074;28;20217;-75
2022/10/02 04:38:01;;;;;;;8.98;4.50;;;;;;;13.48;100.00;100579.09;5074833;28;20201;-76
2022/10/02 04:40:50;;;;;;;9.20;4.68;;;;;;;13.49;100.00;100578.13;5060927;28;20193;-74
2022/10/02 04:43:33;;;;;;;11.18;4.95;;;;;;;13.52;100.00;100579.78;5078103;28;20181;-74
2022/10/02 04:46:11;;;;;;;15.77;5.85;;;;;;;13.52;100.00;100593.31;5074000;28;20224;-76
2022/10/02 04:49:02;;;;;;;10.65;5.63;;;;;;;13.44;100.00;100591.03;5069934;28;20208;-76
2022/10/02 04:51:47;;;;;;;11.63;5.10;;;;;;;13.44;100.00;100585.63;5073206;28;20237;-75
2022/10/02 04:54:28;;;;;;;12.75;6.15;;;;;;;13.40;100.00;100592.16;5077456;28;20280;-76
2022/10/02 04:57:09;;;;;;;11.23;5.22;;;;;;;13.37;100.00;100584.22;5066651;28;20225;-75
2022/10/02 04:59:49;;;;;;;11.50;5.28;;;;;;;13.43;100.00;100583.91;5066112;28;20196;-74
2022/10/02 05:02:32;;;;;;;16.75;6.38;;;;;;;13.46;100.00;100583.72;5065964;28;20283;-74
2022/10/02 05:05:19;;;;;;;14.93;5.00;;;;;;;13.38;100.00;100580.53;5061080;28;20319;-74
2022/10/02 05:07:58;;;;;;;10.93;6.03;;;;;;;13.36;100.00;100571.63;5066909;28;20231;-76
2022/10/02 05:10:40;;;;;;;8.85;5.57;;;;;;;13.39;100.00;100573.31;5072749;28;20216;-75
2022/10/02 05:13:25;;;;;;;14.02;5.68;;;;;;;13.39;100.00;100576.03;5071795;28;20209;-75
2022/10/02 05:16:18;;;;;;;12.85;5.50;;;;;;;13.35;100.00;100568.06;5067177;28;20312;-75
2022/10/02 05:19:09;;;;;;;15.65;6.00;;;;;;;13.33;100.00;100558.28;5072304;28;20194;-75
2022/10/02 05:22:18;;;;;;;15.25;5.93;;;;;;;13.34;100.00;100568.13;5067565;28;20197;-77
2022/10/02 05:24:58;;;;;;;14.13;5.90;;;;;;;13.36;100.00;100577.03;5052406;28;20204;-76
2022/10/02 05:27:42;;;;;;;15.15;6.95;;;;;;;13.34;100.00;100577.16;5051992;28;20206;-75
2022/10/02 05:30:12;;;;;;;12.07;6.22;;;;;;;13.42;100.00;100573.16;5038413;28;20208;-76
2022/10/02 05:32:57;;;;;;;20.98;7.60;;;;;;;13.38;100.00;100568.84;5042184;28;20202;-75
2022/10/02 05:35:39;;;;;;;16.10;6.28;;;;;;;13.34;100.00;100560.03;5055081;28;20232;-76
2022/10/02 05:38:21;;;;;;;23.35;7.15;;;;;;;13.34;100.00;100570.84;5060664;28;20200;-75
2022/10/02 05:40:59;;;;;;;9.57;5.90;;;;;;;13.33;100.00;100571.81;5043056;28;20199;-77
2022/10/02 05:43:39;;;;;;;12.90;6.35;;;;;;;13.32;100.00;100573.66;5059402;28;20635;-76
2022/10/02 05:46:11;;;;;;;15.63;6.55;;;;;;;13.33;100.00;100571.81;5061135;28;20561;-75
2022/10/02 05:48:44;;;;;;;12.13;7.50;;;;;;;13.33;100.00;100586.22;5053027;28;20194;-75
2022/10/02 05:51:16;;;;;;;12.32;6.28;;;;;;;13.31;100.00;100587.25;5056210;28;20193;-76
2022/10/02 05:53:48;;;;;;;15.65;7.05;;;;;;;13.29;100.00;100587.31;5046842;28;20228;-78
2022/10/02 05:56:20;;;;;;;13.90;7.05;;;;;;;13.30;100.00;100582.81;5063763;22;20237;-73
2022/10/02 05:58:52;;;;;;;12.85;7.28;;;;;;;13.28;100.00;100582.88;5027937;28;20666;-73
2022/10/02 06:01:25;;;;;;;14.38;7.10;;;;;;;13.35;100.00;100591.53;5030851;28;20698;-75
2022/10/02 06:04:01;;;;;;;15.05;7.38;;;;;;;13.29;100.00;100591.88;5029358;28;20213;-73
2022/10/02 06:06:35;;;;;;;11.60;7.57;;;;;;;13.31;100.00;100595.38;5035372;28;20271;-75
2022/10/02 06:09:10;;;;;;;18.05;7.95;;;;;;;13.33;100.00;100583.50;5036740;28;20209;-74
2022/10/02 06:11:45;;;;;;;17.83;7.32;;;;;;;13.28;100.00;100587.44;5058268;28;20189;-75
2022/10/02 06:14:20;;;;;;;16.85;7.07;;;;;;;13.25;100.00;100582.13;5029636;28;20217;-75
2022/10/02 06:16:51;;;;;;;16.92;7.07;;;;;;;13.26;100.00;100583.88;5030560;28;20267;-75
2022/10/02 06:19:24;;;;;;;16.15;8.07;;;;;;;13.22;100.00;100574.19;5031321;28;20561;-75
2022/10/02 06:21:56;;;;;;;19.13;8.60;;;;;;;13.29;100.00;100575.63;5029442;28;20808;-76
2022/10/02 06:24:30;;;;;;;15.05;7.28;;;;;;;13.29;100.00;100565.69;5029211;28;20561;-76
2022/10/02 06:27:02;;;;;;;17.42;8.90;;;;;;;13.28;100.00;100571.19;5026778;28;20224;-75
2022/10/02 06:29:34;;;;;;;12.65;8.20;;;;;;;13.20;100.00;100571.56;5030428;28;20217;-75
2022/10/02 06:32:12;;;;;;;18.30;8.45;;;;;;;13.30;100.00;100566.59;5034524;28;20205;-75
2022/10/02 06:34:39;;;;;;;15.32;7.88;;;;;;;13.30;100.00;100572.00;5029336;28;20301;-74
2022/10/02 06:37:28;;;;;;;15.15;7.07;;;;;;;13.31;100.00;100569.19;5032124;28;20226;-74
2022/10/02 06:40:13;;;;;;;14.90;6.28;;;;;;;13.39;100.00;100578.75;5024913;28;20669;-76
2022/10/02 06:42:51;;;;;;;9.43;6.10;;;;;;;13.32;100.00;100581.75;5024367;28;20193;-76
2022/10/02 06:45:28;;;;;;;15.82;7.22;;;;;;;13.29;100.00;100584.63;5039495;28;20182;-76
2022/10/02 06:48:05;;;;;;;10.38;6.97;;;;;;;13.34;100.00;100585.25;5031822;28;20202;-76
2022/10/02 06:50:43;;;;;;;12.95;7.20;;;;;;;13.32;100.00;100581.75;5022489;28;20210;-76
2022/10/02 06:53:27;;;;;;;12.45;6.65;;;;;;;13.35;100.00;100580.72;5022703;28;20202;-75
2022/10/02 06:56:03;;;;;;;15.70;6.60;;;;;;;13.32;100.00;100591.72;5033952;28;20225;-76
2022/10/02 06:58:55;;;;;;;13.60;6.35;;;;;;;13.38;100.00;100596.78;5031885;28;20189;-75
2022/10/02 07:01:34;;;;;;;15.15;6.32;;;;;;;13.29;100.00;100594.56;5030219;28;20190;-75
2022/10/02 07:04:41;;;;;;;12.07;6.35;;;;;;;13.31;100.00;100600.78;5037333;28;20686;-75
2022/10/02 07:07:21;;;;;;;8.85;6.28;;;;;;;13.31;100.00;100595.38;5032088;28;20217;-75
2022/10/02 07:10:13;;;;;;;7.10;5.22;;;;;;;13.32;100.00;100599.84;5032866;28;20197;-74
2022/10/02 07:12:59;;;;;;;9.15;5.93;;;;;;;13.33;100.00;100601.56;5031616;28;20225;-74
2022/10/02 07:15:46;;;;;;;13.80;6.07;;;;;;;13.32;100.00;100592.59;5023289;28;20218;-75
2022/10/02 07:18:20;;;;;;;7.90;5.10;;;;;;;13.30;100.00;100586.38;5037271;28;20197;-77
2022/10/02 07:20:58;;;;;;;11.50;5.10;;;;;;;13.30;100.00;100594.50;5040785;28;20204;-78
2022/10/02 07:23:40;;;;;;;7.28;4.65;;;;;;;13.28;100.00;100588.28;5033642;28;20212;-78
2022/10/02 07:26:30;;;;;;;12.50;5.32;;;;;;;13.28;100.00;100585.59;5026241;28;20232;-77
2022/10/02 07:29:12;;;;;;;8.90;4.68;;;;;;;13.32;100.00;100592.59;4970134;28;20231;-76
2022/10/02 07:31:50;;;;;;;11.52;5.63;;;;;;;13.29;100.00;100594.56;4971182;28;20203;-75
2022/10/02 07:34:29;;;;;;;10.43;4.65;;;;;;;13.29;100.00;100586.47;4974293;28;20219;-76
2022/10/02 07:37:06;;;;;;;12.50;4.80;;;;;;;13.30;100.00;100588.22;4966593;28;20226;-75
2022/10/02 07:39:45;;;;;;;9.25;5.93;;;;;;;13.23;100.00;100597.56;4970336;28;20204;-77
2022/10/02 07:42:46;;;;;;;7.70;4.43;;;;;;;13.28;100.00;100598.25;4969727;28;20215;-75
2022/10/02 07:45:29;;;;;;;7.47;4.82;;;;;;;13.25;100.00;100598.34;4917299;29;20864;-76
2022/10/02 07:48:12;;;;;;;12.27;5.20;;;;;;;13.29;100.00;100590.03;4913015;29;20206;-75
2022/10/02 07:50:53;;;;;;;8.18;4.55;;;;;;;13.29;100.00;100597.28;4923074;29;20292;-74
2022/10/02 07:53:25;;;;;;;8.90;4.82;;;;;;;13.38;100.00;100595.91;4941405;29;20276;-74
2022/10/02 07:55:54;;;;;;;11.27;4.45;;;;;;;13.40;100.00;100594.88;4924233;29;20229;-74
2022/10/02 07:58:31;;;;;;;8.85;4.95;;;;;;;13.38;100.00;100599.47;4926799;29;20220;-73
2022/10/02 08:01:02;;;;;;;7.68;4.60;;;;;;;13.39;100.00;100601.25;4916337;29;20292;-74
2022/10/02 08:03:34;;;;;;;9.23;4.97;;;;;;;13.42;100.00;100592.09;4919215;29;20267;-74
2022/10/02 08:06:03;;;;;;;7.25;4.00;;;;;;;13.42;100.00;100592.94;4933667;28;20228;-74
2022/10/02 08:08:37;;;;;;;10.43;4.90;;;;;;;13.47;100.00;100607.09;4952563;28;20797;-76
2022/10/02 08:11:10;;;;;;;9.38;5.28;;;;;;;13.46;100.00;100604.50;4950278;29;20200;-74
2022/10/02 08:13:40;;;;;;;8.57;4.28;;;;;;;13.42;100.00;100594.78;4944626;28;20209;-74
2022/10/02 08:16:11;;;;;;;7.00;3.55;;;;;;;13.38;100.00;100613.00;4949618;28;20229;-75
2022/10/02 08:18:42;;;;;;;6.32;3.70;;;;;;;13.41;100.00;100614.66;4945197;29;20208;-73
2022/10/02 08:21:13;;;;;;;8.00;3.75;;;;;;;13.48;100.00;100625.09;4967975;28;20569;-74
2022/10/02 08:23:45;;;;;;;4.97;3.85;;;;;;;13.55;100.00;100610.28;5038219;28;20198;-73
2022/10/02 08:26:17;;;;;;;6.32;3.40;;;;;;;13.52;100.00;100606.84;5034007;28;20312;-74
2022/10/02 08:28:52;;;;;;;9.32;3.75;;;;;;;13.56;100.00;100605.72;5030967;28;20201;-74
2022/10/02 08:31:22;;;;;;;9.35;4.00;;;;;;;13.64;100.00;100613.44;5027630;28;20190;-74
2022/10/02 08:33:48;;;;;;;7.57;3.63;;;;;;;13.56;100.00;100612.00;5025918;28;20206;-74
2022/10/02 08:36:39;;;;;;;8.65;3.85;;;;;;;13.75;100.00;100614.59;5032209;28;20218;-74
2022/10/02 08:39:30;;;;;;;5.32;3.03;;;;;;;13.86;100.00;100607.69;5031946;28;20206;-74
2022/10/02 08:42:39;;;;;;;9.15;3.50;;;;;;;13.68;100.00;100612.28;5033178;28;20221;-73
2022/10/02 08:45:42;;;;;;;8.32;3.30;;;;;;;13.80;100.00;100619.75;5023226;28;20288;-74
2022/10/02 08:48:53;;;;;;;5.00;3.20;;;;;;;13.72;100.00;100616.59;5027651;28;20204;-73
2022/10/02 08:51:47;;;;;;;8.90;3.72;;;;;;;13.64;100.00;100626.97;5024566;28;20207;-73
2022/10/02 08:54:54;;;;;;;5.25;3.28;;;;;;;13.76;100.00;100639.81;5030611;28;20580;-75
2022/10/02 08:57:51;;;;;;;6.32;3.40;;;;;;;13.76;100.00;100629.88;5026210;28;20229;-74
2022/10/02 09:00:22;;;;;;;5.93;3.63;;;;;;;13.74;100.00;100636.31;5030846;28;20664;-75
2022/10/02 09:03:32;;;;;;;5.35;3.42;;;;;;;13.73;100.00;100637.31;5034075;28;20205;-74
2022/10/02 09:06:31;;;;;;;8.27;4.63;;;;;;;13.66;100.00;100634.06;5023615;28;20225;-75
2022/10/02 09:09:44;;;;;;;6.20;3.55;;;;;;;13.69;100.00;100638.41;5027165;28;20198;-76
2022/10/02 09:12:59;;;;;;;5.80;3.38;;;;;;;13.75;100.00;100632.69;5028619;28;20698;-75
2022/10/02 09:15:43;;;;;;;5.35;3.67;;;;;;;13.72;100.00;100622.00;4950536;28;20757;-75
2022/10/02 09:18:17;;;;;;;5.70;4.40;;;;;;;13.76;100.00;100631.72;4946350;29;20204;-74
2022/10/02 09:21:05;;;;;;;6.00;3.58;;;;;;;13.76;100.00;100619.03;4951117;29;20710;-74
2022/10/02 09:24:17;;;;;;;6.00;3.95;;;;;;;13.84;100.00;100620.44;4951536;29;20204;-75
2022/10/02 09:27:21;;;;;;;8.38;4.80;;;;;;;13.85;100.00;100617.66;4946173;29;20216;-75
2022/10/02 09:30:15;;;;;;;9.90;4.03;;;;;;;13.95;100.00;100621.63;4941123;29;20223;-74
2022/10/02 09:33:26;;;;;;;6.05;3.72;;;;;;;14.01;100.00;100625.81;4951732;28;20201;-74
2022/10/02 09:36:35;;;;;;;6.45;3.60;;;;;;;13.98;100.00;100623.28;4948229;28;20260;-74
2022/10/02 09:39:36;;;;;;;6.50;3.95;;;;;;;14.04;100.00;100627.47;4945337;29;20215;-74
2022/10/02 09:42:37;;;;;;;6.18;3.85;;;;;;;14.12;100.00;100628.78;4949567;29;20201;-75
2022/10/02 09:45:36;;;;;;;5.38;4.20;;;;;;;14.14;100.00;100632.28;4948458;28;20204;-75
2022/10/02 09:48:48;;;;;;;4.35;3.38;;;;;;;14.07;100.00;100639.00;4944592;29;20217;-74
2022/10/02 09:51:40;;;;;;;4.97;3.92;;;;;;;14.01;100.00;100642.06;4964741;28;20233;-75
2022/10/02 09:54:30;;;;;;;4.38;3.33;;;;;;;13.94;100.00;100637.94;5037007;28;20221;-75
2022/10/02 09:57:30;;;;;;;5.60;3.80;;;;;;;14.01;100.00;100633.06;5010017;28;20222;-76
2022/10/02 10:00:37;;;;;;;5.55;4.03;;;;;;;13.99;100.00;100627.72;4939460;28;20243;-74
2022/10/02 10:03:57;;;;;;;7.43;6.03;;;;;;;13.97;100.00;100625.13;4887587;29;20212;-76
2022/10/02 10:07:02;;;;;;;6.38;3.35;;;;;;;13.96;100.00;100622.47;4883294;29;20250;-75
2022/10/02 10:10:13;;;;;;;7.80;4.00;;;;;;;14.07;100.00;100619.19;4888960;29;20211;-74
2022/10/02 10:13:16;;;;;;;9.05;3.08;;;;;;;13.99;100.00;100616.88;4884181;29;20240;-74
2022/10/02 10:16:18;;;;;;;7.13;3.80;;;;;;;13.92;100.00;100619.06;4893345;29;20245;-75
2022/10/02 10:19:16;;;;;;;6.72;4.45;;;;;;;14.01;100.00;100611.41;4888938;29;20619;-73
2022/10/02 10:22:16;;;;;;;2.80;2.38;;;;;;;13.91;100.00;100601.09;4892772;29;20207;-77
2022/10/02 10:25:12;;;;;;;5.60;2.65;;;;;;;13.83;100.00;100605.16;4766070;30;20253;-74
2022/10/02 10:28:15;;;;;;;5.47;2.90;;;;;;;13.87;100.00;100607.63;4769982;30;20226;-74
2022/10/02 10:31:16;;;;;;;5.00;2.70;;;;;;;13.91;100.00;100611.03;4755795;30;20216;-75
2022/10/02 10:34:10;;;;;;;2.60;2.30;;;;;;;14.08;100.00;100608.25;4777391;30;20537;-76
2022/10/02 10:40:28;;;;;;;3.72;3.00;;;;;;;14.17;100.00;100633.94;4889470;29;20205;-75
2022/10/02 10:43:43;;;;;;;5.25;2.70;;;;;;;14.23;100.00;100632.72;4816518;29;20205;-74
2022/10/02 10:46:32;;;;;;;3.15;2.03;;;;;;;14.26;100.00;100635.25;4805749;29;20261;-78
2022/10/02 10:49:27;;;;;;;2.70;2.50;;;;;;;14.34;100.00;100636.56;4813807;29;20209;-75
2022/10/02 10:52:06;;;;;;;5.93;2.72;;;;;;;14.32;100.00;100657.44;4820331;29;20225;-74
2022/10/02 10:54:58;;;;;;;5.35;2.92;;;;;;;14.16;100.00;100662.88;4820776;29;20241;-74
2022/10/02 10:57:36;;;;;;;9.93;6.57;;;;;;;14.16;100.00;100659.28;4818531;29;20248;-73
2022/10/02 11:00:21;;;;;;;3.85;2.75;;;;;;;14.27;100.00;100655.94;4830422;29;20213;-72
2022/10/02 11:03:07;;;;;;;4.53;3.30;;;;;;;14.27;100.00;100650.53;4938401;29;20212;-74
2022/10/02 11:06:13;;;;;;;2.35;2.00;;;;;;;14.34;100.00;100670.91;4950891;29;20200;-73
2022/10/02 11:09:15;;;;;;;3.17;1.90;;;;;;;14.29;100.00;100662.16;4954004;28;20206;-75
2022/10/02 11:11:57;;;;;;;6.00;2.75;;;;;;;14.31;100.00;100665.66;4877939;29;20195;-74
2022/10/02 11:14:35;;;;;;;7.78;5.72;;;;;;;14.13;100.00;100660.34;4892936;29;20224;-74
2022/10/02 11:17:20;;;;;;;2.65;1.80;;;;;;;14.17;100.00;100669.16;4860245;29;20792;-74
2022/10/02 11:20:06;;;;;;;3.08;2.22;;;;;;;14.06;100.00;100671.56;4949750;29;20291;-75
2022/10/02 11:22:54;;;;;;;2.50;1.80;;;;;;;14.03;100.00;100660.94;4951652;29;20200;-75
2022/10/02 11:25:38;;;;;;;2.95;2.10;;;;;;;14.11;100.00;100658.66;4949989;29;20201;-76
2022/10/02 11:28:28;;;;;;;2.00;1.70;;;;;;;14.16;100.00;100664.72;4946149;29;20193;-75
2022/10/02 11:31:06;;;;;;;2.65;2.20;;;;;;;14.11;100.00;100659.53;4950575;29;20251;-74
2022/10/02 11:33:50;;;;;;;3.45;2.05;;;;;;;14.12;100.00;100657.69;4950858;29;20203;-74
2022/10/02 11:36:40;;;;;;;2.72;2.05;;;;;;;14.17;100.00;100666.44;4949682;28;20730;-73
2022/10/02 11:39:14;;;;;;;3.50;1.90;;;;;;;14.24;100.00;100673.25;4944213;29;20204;-75
2022/10/02 11:42:09;;;;;;;2.30;1.85;;;;;;;14.16;100.00;100679.13;4944902;29;20200;-74
2022/10/02 11:45:01;;;;;;;3.38;1.60;;;;;;;14.15;100.00;100674.63;4949153;28;22110;-76
2022/10/02 11:47:49;;;;;;;2.78;1.85;;;;;;;14.13;100.00;100670.28;4950679;28;20216;-74
2022/10/02 11:50:32;;;;;;;5.30;2.13;;;;;;;14.13;100.00;100678.41;5028380;28;20614;-75
2022/10/02 11:53:15;;;;;;;3.63;2.00;;;;;;;14.06;100.00;100667.03;5012225;28;20202;-74
2022/10/02 11:55:58;;;;;;;2.17;1.58;;;;;;;14.13;100.00;100676.59;5016178;28;20237;-74
2022/10/02 11:58:42;;;;;;;4.13;1.67;;;;;;;14.14;100.00;100680.16;5022746;28;20202;-75
2022/10/02 12:01:18;;;;;;;3.42;1.88;;;;;;;14.18;100.00;100676.31;5030444;28;20308;-74
2022/10/02 12:03:53;;;;;;;3.05;2.38;;;;;;;14.18;100.00;100670.91;5034116;28;20212;-75
2022/10/02 12:06:39;;;;;;;5.05;2.58;;;;;;;14.25;100.00;100664.19;5033758;28;20218;-73
2022/10/02 12:09:16;;;;;;;2.35;1.45;;;;;;;14.36;100.00;100661.75;5031262;28;20205;-76
2022/10/02 12:11:55;;;;;;;2.80;1.65;;;;;;;14.48;100.00;100680.97;5032989;28;20218;-74
2022/10/02 12:14:34;;;;;;;2.38;1.52;;;;;;;14.55;100.00;100680.56;5033672;28;20288;-75
2022/10/02 12:17:19;;;;;;;2.20;1.90;;;;;;;14.56;100.00;100686.84;5033795;28;20230;-75
2022/10/02 12:28:38;;;;;;;2.78;1.58;;;;;;;14.45;100.00;100673.91;5032833;28;20247;-75